Time;durP1;ratioP1;P1;durP2;ratioP2;P2;SDS_P1;SDS_P2;PMS_P1;PMS_P2;Temp;Humidity;BMP_temperature;BMP_pressure;BME280_temperature;BME280_humidity;BME280_pressure;Samples;Min_cycle;Max_cycle;Signal;HPM_P1;HPM_P2
2021/06/14 00:01:56;;;;;;;;;;;19.30;56.50;;;;;;472319;250;2150;-45
2021/06/14 00:03:57;;;;;;;;;;;19.30;56.60;;;;;;472219;250;1196;-44
2021/06/14 00:05:59;;;;;;;;;;;19.30;56.60;;;;;;471989;250;1133;-45
2021/06/14 00:08:00;;;;;;;;;;;19.30;56.70;;;;;;472394;250;1115;-45
2021/06/14 00:10:01;;;;;;;;;;;19.30;56.70;;;;;;472066;250;1394;-45
2021/06/14 00:12:02;;;;;;;;;;;19.30;56.70;;;;;;472104;250;1263;-45
2021/06/14 00:14:04;;;;;;;;;;;19.30;56.60;;;;;;472091;250;1192;-45
2021/06/14 00:16:05;;;;;;;;;;;19.30;56.60;;;;;;472173;250;1249;-45
2021/06/14 00:18:06;;;;;;;;;;;19.30;56.70;;;;;;472160;250;1205;-45
2021/06/14 00:20:08;;;;;;;;;;;19.30;56.60;;;;;;472034;250;1223;-45
2021/06/14 00:22:09;;;;;;;;;;;19.30;56.60;;;;;;472154;250;2155;-45
2021/06/14 00:24:10;;;;;;;;;;;19.30;56.60;;;;;;472425;250;1072;-45
2021/06/14 00:26:12;;;;;;;;;;;19.30;56.70;;;;;;472224;250;1060;-45
2021/06/14 00:28:13;;;;;;;;;;;19.30;56.60;;;;;;472011;250;1171;-45
2021/06/14 00:30:14;;;;;;;;;;;19.30;56.60;;;;;;472138;250;1222;-45
2021/06/14 00:32:16;;;;;;;;;;;19.30;56.60;;;;;;471964;250;1340;-45
2021/06/14 00:34:17;;;;;;;;;;;19.30;56.60;;;;;;471978;250;1094;-44
2021/06/14 00:36:18;;;;;;;;;;;19.30;56.60;;;;;;472041;250;1300;-45
2021/06/14 00:38:20;;;;;;;;;;;19.30;56.50;;;;;;472064;250;1199;-45
2021/06/14 00:40:21;;;;;;;;;;;19.30;56.50;;;;;;472390;250;1111;-45
2021/06/14 00:42:22;;;;;;;;;;;19.30;56.50;;;;;;472121;250;2160;-45
2021/06/14 00:44:24;;;;;;;;;;;19.30;56.50;;;;;;472091;250;1177;-45
2021/06/14 00:46:25;;;;;;;;;;;19.30;56.50;;;;;;471911;249;1153;-45
2021/06/14 00:48:26;;;;;;;;;;;19.30;56.60;;;;;;472173;250;1027;-45
2021/06/14 00:50:28;;;;;;;;;;;19.30;56.60;;;;;;472408;250;1279;-45
2021/06/14 00:52:29;;;;;;;;;;;19.30;56.60;;;;;;472101;250;1155;-45
2021/06/14 00:54:30;;;;;;;;;;;19.30;56.60;;;;;;472409;250;1049;-45
2021/06/14 00:56:32;;;;;;;;;;;19.30;56.60;;;;;;471933;250;1442;-45
2021/06/14 00:58:33;;;;;;;;;;;19.30;56.60;;;;;;472125;250;1247;-45
2021/06/14 01:00:35;;;;;;;;;;;19.30;56.70;;;;;;472321;250;1190;-45
2021/06/14 01:02:36;;;;;;;;;;;19.30;56.60;;;;;;472140;250;2139;-45
2021/06/14 01:04:37;;;;;;;;;;;19.30;56.60;;;;;;472135;250;1052;-45
2021/06/14 01:06:39;;;;;;;;;;;19.30;56.60;;;;;;471878;250;1586;-45
2021/06/14 01:08:40;;;;;;;;;;;19.30;56.60;;;;;;472155;250;1045;-44
2021/06/14 01:10:41;;;;;;;;;;;19.30;56.60;;;;;;472281;252;1189;-45
2021/06/14 01:12:43;;;;;;;;;;;19.30;56.60;;;;;;472023;250;1061;-45
2021/06/14 01:14:44;;;;;;;;;;;19.30;56.60;;;;;;472094;250;1188;-44
2021/06/14 01:16:45;;;;;;;;;;;19.30;56.70;;;;;;472112;250;1194;-45
2021/06/14 01:18:47;;;;;;;;;;;19.30;56.60;;;;;;472421;250;1088;-45
2021/06/14 01:20:48;;;;;;;;;;;19.30;56.60;;;;;;471919;250;1304;-45
2021/06/14 01:22:49;;;;;;;;;;;19.30;56.70;;;;;;472096;250;2142;-45
2021/06/14 01:24:51;;;;;;;;;;;19.30;56.70;;;;;;472438;250;1077;-45
2021/06/14 01:26:52;;;;;;;;;;;19.30;56.70;;;;;;472015;250;1382;-45
2021/06/14 01:28:53;;;;;;;;;;;19.30;56.70;;;;;;472357;250;1278;-45
2021/06/14 01:30:55;;;;;;;;;;;19.30;56.60;;;;;;471960;250;1198;-45
2021/06/14 01:32:56;;;;;;;;;;;19.30;56.60;;;;;;472001;250;1304;-44
2021/06/14 01:34:57;;;;;;;;;;;19.30;56.60;;;;;;471980;250;1091;-45
2021/06/14 01:37:00;;;;;;;;;;;19.30;56.60;;;;;;472267;250;1342;-45
2021/06/14 01:39:00;;;;;;;;;;;19.30;56.60;;;;;;472102;252;2355;-45
2021/06/14 01:41:01;;;;;;;;;;;19.30;56.50;;;;;;471911;250;1185;-45
2021/06/14 01:43:03;;;;;;;;;;;19.30;56.60;;;;;;472108;250;2135;-45
2021/06/14 01:45:04;;;;;;;;;;;19.30;56.50;;;;;;472066;250;1200;-45
2021/06/14 01:47:06;;;;;;;;;;;19.30;56.50;;;;;;471936;250;1449;-45
2021/06/14 01:49:07;;;;;;;;;;;19.30;56.50;;;;;;472014;250;1064;-45
2021/06/14 01:51:08;;;;;;;;;;;19.30;56.60;;;;;;471944;250;1810;-45
2021/06/14 01:53:10;;;;;;;;;;;19.30;56.60;;;;;;472428;250;1077;-45
2021/06/14 01:55:11;;;;;;;;;;;19.30;56.60;;;;;;472049;250;1079;-45
2021/06/14 01:57:12;;;;;;;;;;;19.30;56.60;;;;;;472086;250;1184;-45
2021/06/14 01:59:13;;;;;;;;;;;19.30;56.60;;;;;;471999;250;1168;-45
2021/06/14 02:01:15;;;;;;;;;;;19.30;56.60;;;;;;471918;249;1232;-45
2021/06/14 02:03:16;;;;;;;;;;;19.30;56.60;;;;;;472144;250;2136;-45
2021/06/14 02:05:18;;;;;;;;;;;19.30;56.60;;;;;;472393;250;1182;-45
2021/06/14 02:07:19;;;;;;;;;;;19.30;56.60;;;;;;472137;250;1039;-45
2021/06/14 02:09:20;;;;;;;;;;;19.20;56.60;;;;;;471962;250;1065;-45
2021/06/14 02:11:21;;;;;;;;;;;19.30;56.70;;;;;;471940;250;1167;-45
2021/06/14 02:13:23;;;;;;;;;;;19.30;56.70;;;;;;472033;250;1124;-45
2021/06/14 02:15:24;;;;;;;;;;;19.30;56.70;;;;;;472142;250;1194;-45
2021/06/14 02:17:25;;;;;;;;;;;19.30;56.70;;;;;;472098;250;1298;-45
2021/06/14 02:19:27;;;;;;;;;;;19.20;56.60;;;;;;472207;250;1203;-45
2021/06/14 02:21:28;;;;;;;;;;;19.30;56.70;;;;;;472029;250;1239;-45
2021/06/14 02:23:29;;;;;;;;;;;19.30;56.60;;;;;;471953;250;2202;-45
2021/06/14 02:25:31;;;;;;;;;;;19.30;56.60;;;;;;472331;250;1564;-45
2021/06/14 02:27:32;;;;;;;;;;;19.30;56.60;;;;;;472118;250;1176;-45
2021/06/14 02:29:33;;;;;;;;;;;19.30;56.70;;;;;;472014;250;1178;-45
2021/06/14 02:31:35;;;;;;;;;;;19.20;56.70;;;;;;472041;250;1136;-44
2021/06/14 02:33:36;;;;;;;;;;;19.30;56.70;;;;;;472016;250;1065;-45
2021/06/14 02:35:37;;;;;;;;;;;19.30;56.60;;;;;;472153;250;1120;-44
2021/06/14 02:37:39;;;;;;;;;;;19.20;56.60;;;;;;472199;250;1136;-44
2021/06/14 02:39:40;;;;;;;;;;;19.20;56.70;;;;;;472074;250;1169;-45
2021/06/14 02:41:41;;;;;;;;;;;19.30;56.70;;;;;;471911;250;1226;-45
2021/06/14 02:43:43;;;;;;;;;;;19.30;56.70;;;;;;472240;250;2198;-45
2021/06/14 02:45:44;;;;;;;;;;;19.30;56.60;;;;;;471904;250;1279;-45
2021/06/14 02:47:45;;;;;;;;;;;19.30;56.60;;;;;;472215;250;1186;-45
2021/06/14 02:49:47;;;;;;;;;;;19.20;56.70;;;;;;472109;250;1046;-45
2021/06/14 02:51:48;;;;;;;;;;;19.40;56.30;;;;;;471845;250;1474;-45
2021/06/14 02:54:03;;;;;;;;;;;19.80;55.40;;;;;;472390;250;1073;-45
2021/06/14 02:55:51;;;;;;;;;;;20.00;54.60;;;;;;471393;252;1999;-45
2021/06/14 02:57:52;;;;;;;;;;;20.20;54.10;;;;;;471966;250;1215;-45
2021/06/14 02:59:54;;;;;;;;;;;20.30;53.60;;;;;;472104;250;1179;-45
2021/06/14 03:01:55;;;;;;;;;;;20.40;53.30;;;;;;471929;250;1415;-45
2021/06/14 03:03:57;;;;;;;;;;;20.50;53.20;;;;;;472117;250;2154;-45
2021/06/14 03:05:58;;;;;;;;;;;20.60;53.10;;;;;;471954;250;2462;-45
2021/06/14 03:07:59;;;;;;;;;;;20.60;52.90;;;;;;476055;247;1068;-45
2021/06/14 03:10:01;;;;;;;;;;;20.70;52.70;;;;;;472331;251;1073;-45
2021/06/14 03:12:02;;;;;;;;;;;20.70;52.60;;;;;;476779;248;1097;-45
2021/06/14 03:14:04;;;;;;;;;;;20.70;52.50;;;;;;481459;248;1067;-45
2021/06/14 03:16:05;;;;;;;;;;;20.80;52.50;;;;;;481223;248;1169;-45
2021/06/14 03:18:06;;;;;;;;;;;20.80;52.30;;;;;;481347;248;1068;-45
2021/06/14 03:20:08;;;;;;;;;;;20.80;52.20;;;;;;481487;248;1069;-45
2021/06/14 03:22:09;;;;;;;;;;;20.80;52.20;;;;;;481211;248;1074;-45
2021/06/14 03:24:11;;;;;;;;;;;20.90;52.10;;;;;;481452;248;2258;-45
2021/06/14 03:26:12;;;;;;;;;;;20.90;52.00;;;;;;480911;248;1336;-45
2021/06/14 03:28:13;;;;;;;;;;;21.00;52.00;;;;;;481377;248;1351;-45
2021/06/14 03:30:15;;;;;;;;;;;21.00;51.90;;;;;;481039;248;1338;-45
2021/06/14 03:32:16;;;;;;;;;;;21.00;51.80;;;;;;480974;248;1165;-45
2021/06/14 03:34:17;;;;;;;;;;;21.10;51.80;;;;;;481445;248;1185;-45
2021/06/14 03:36:19;;;;;;;;;;;21.10;51.70;;;;;;481409;248;1138;-45
2021/06/14 03:38:20;;;;;;;;;;;21.10;51.70;;;;;;481498;248;1086;-45
2021/06/14 03:40:21;;;;;;;;;;;21.10;51.60;;;;;;481236;248;1142;-45
2021/06/14 03:42:24;;;;;;;;;;;21.20;51.50;;;;;;481093;248;1027;-45
2021/06/14 03:44:25;;;;;;;;;;;21.20;51.50;;;;;;481347;247;2185;-45
2021/06/14 03:46:25;;;;;;;;;;;21.20;51.50;;;;;;480863;247;2184;-45
2021/06/14 03:48:27;;;;;;;;;;;21.20;51.40;;;;;;481068;248;1076;-45
2021/06/14 03:50:28;;;;;;;;;;;21.30;51.40;;;;;;481441;248;1069;-45
2021/06/14 03:52:29;;;;;;;;;;;21.30;51.30;;;;;;481096;248;1196;-45
2021/06/14 03:54:31;;;;;;;;;;;21.30;51.30;;;;;;481411;248;1211;-45
2021/06/14 03:56:32;;;;;;;;;;;21.30;51.30;;;;;;480947;248;1371;-45
2021/06/14 03:58:33;;;;;;;;;;;21.30;51.30;;;;;;481029;248;1082;-45
2021/06/14 04:00:34;;;;;;;;;;;21.40;51.30;;;;;;480978;248;1279;-45
2021/06/14 04:02:36;;;;;;;;;;;21.40;51.20;;;;;;480901;248;1180;-45
2021/06/14 04:04:43;;;;;;;;;;;21.40;51.20;;;;;;480983;248;2131;-45
2021/06/14 04:06:42;;;;;;;;;;;21.40;51.20;;;;;;480989;247;2182;-45
2021/06/14 04:08:43;;;;;;;;;;;21.40;51.10;;;;;;481405;248;1206;-45
2021/06/14 04:10:45;;;;;;;;;;;21.40;51.10;;;;;;481066;248;1158;-45
2021/06/14 04:12:46;;;;;;;;;;;21.40;51.00;;;;;;481348;248;1308;-45
2021/06/14 04:14:47;;;;;;;;;;;21.40;51.00;;;;;;481377;248;1132;-45
2021/06/14 04:16:49;;;;;;;;;;;21.50;51.00;;;;;;481047;248;1186;-45
2021/06/14 04:18:50;;;;;;;;;;;21.50;51.00;;;;;;481375;248;1073;-45
2021/06/14 04:20:51;;;;;;;;;;;21.50;51.00;;;;;;481073;248;1120;-45
2021/06/14 04:22:53;;;;;;;;;;;21.50;50.90;;;;;;481037;248;1187;-45
2021/06/14 04:24:55;;;;;;;;;;;21.60;51.00;;;;;;481349;248;2122;-45
2021/06/14 04:26:56;;;;;;;;;;;21.50;50.90;;;;;;481307;243;1406;-45
2021/06/14 04:28:57;;;;;;;;;;;21.50;50.90;;;;;;481347;248;1060;-45
2021/06/14 04:30:58;;;;;;;;;;;21.60;50.80;;;;;;481175;248;1080;-45
2021/06/14 04:33:00;;;;;;;;;;;21.50;50.80;;;;;;480885;248;1141;-45
2021/06/14 04:35:01;;;;;;;;;;;21.60;50.90;;;;;;481269;248;1081;-45
2021/06/14 04:37:03;;;;;;;;;;;21.60;50.90;;;;;;480989;248;1080;-45
2021/06/14 04:39:04;;;;;;;;;;;21.60;50.70;;;;;;480841;248;1081;-45
2021/06/14 04:41:05;;;;;;;;;;;21.60;50.80;;;;;;481157;248;1042;-45
2021/06/14 04:43:07;;;;;;;;;;;21.60;50.80;;;;;;480851;248;2163;-45
2021/06/14 04:45:08;;;;;;;;;;;21.70;50.80;;;;;;480868;248;1050;-45
2021/06/14 04:47:09;;;;;;;;;;;21.60;50.80;;;;;;480771;248;1181;-45
2021/06/14 04:49:10;;;;;;;;;;;21.70;50.70;;;;;;480865;248;1066;-45
2021/06/14 04:51:12;;;;;;;;;;;21.70;50.70;;;;;;481220;248;1056;-45
2021/06/14 04:53:13;;;;;;;;;;;21.70;50.70;;;;;;480762;248;1066;-45
2021/06/14 04:55:14;;;;;;;;;;;21.70;50.70;;;;;;481056;248;1061;-45
2021/06/14 04:57:16;;;;;;;;;;;21.70;50.70;;;;;;480811;248;1288;-45
2021/06/14 04:59:17;;;;;;;;;;;21.70;50.70;;;;;;480975;248;1083;-45
2021/06/14 05:01:19;;;;;;;;;;;21.70;50.70;;;;;;480718;248;1191;-45
2021/06/14 05:03:20;;;;;;;;;;;21.70;50.60;;;;;;480738;248;2154;-45
2021/06/14 05:05:21;;;;;;;;;;;21.70;50.60;;;;;;481074;248;1188;-45
2021/06/14 05:07:23;;;;;;;;;;;21.70;50.60;;;;;;480821;248;1352;-45
2021/06/14 05:09:24;;;;;;;;;;;21.80;50.60;;;;;;481275;248;1025;-45
2021/06/14 05:11:25;;;;;;;;;;;21.80;50.60;;;;;;480642;248;1216;-45
2021/06/14 05:13:27;;;;;;;;;;;21.80;50.60;;;;;;480699;248;1089;-45
2021/06/14 05:15:28;;;;;;;;;;;21.80;50.50;;;;;;480674;248;1060;-45
2021/06/14 05:17:29;;;;;;;;;;;21.80;50.50;;;;;;480580;248;1205;-45
2021/06/14 05:19:31;;;;;;;;;;;21.80;50.50;;;;;;480790;239;1831;-45
2021/06/14 05:21:32;;;;;;;;;;;21.90;50.50;;;;;;480828;248;1201;-45
2021/06/14 05:23:33;;;;;;;;;;;21.90;50.40;;;;;;480594;248;2133;-45
2021/06/14 05:25:35;;;;;;;;;;;21.90;50.50;;;;;;480768;248;1090;-45
2021/06/14 05:27:36;;;;;;;;;;;21.90;50.50;;;;;;480950;248;1239;-45
2021/06/14 05:29:37;;;;;;;;;;;21.90;50.40;;;;;;480816;248;1193;-45
2021/06/14 05:31:39;;;;;;;;;;;21.90;50.40;;;;;;480623;248;1143;-45
2021/06/14 05:33:40;;;;;;;;;;;21.90;50.40;;;;;;480570;248;1171;-45
2021/06/14 05:35:41;;;;;;;;;;;22.00;50.50;;;;;;480614;248;1281;-45
2021/06/14 05:37:43;;;;;;;;;;;22.00;50.40;;;;;;481060;248;1121;-45
2021/06/14 05:39:44;;;;;;;;;;;22.00;50.50;;;;;;480691;248;1086;-45
2021/06/14 05:41:46;;;;;;;;;;;22.00;50.50;;;;;;480793;248;1135;-45
2021/06/14 05:43:47;;;;;;;;;;;21.90;50.40;;;;;;480629;248;2181;-45
2021/06/14 05:45:48;;;;;;;;;;;21.90;50.40;;;;;;480601;248;1098;-45
2021/06/14 05:47:50;;;;;;;;;;;22.00;50.40;;;;;;480617;248;1252;-45
2021/06/14 05:49:51;;;;;;;;;;;22.00;50.50;;;;;;480448;248;1089;-45
2021/06/14 05:51:52;;;;;;;;;;;22.00;50.40;;;;;;480630;248;1138;-45
2021/06/14 05:53:54;;;;;;;;;;;22.00;50.30;;;;;;480564;248;1073;-45
2021/06/14 05:55:55;;;;;;;;;;;22.00;50.20;;;;;;480502;248;1127;-45
2021/06/14 05:57:56;;;;;;;;;;;22.00;50.30;;;;;;480331;248;1489;-45
2021/06/14 05:59:58;;;;;;;;;;;22.00;50.30;;;;;;480519;248;1184;-45
2021/06/14 06:01:59;;;;;;;;;;;22.00;50.30;;;;;;480424;248;1333;-45
2021/06/14 06:04:00;;;;;;;;;;;22.00;50.30;;;;;;480360;248;2197;-45
2021/06/14 06:06:02;;;;;;;;;;;22.00;50.30;;;;;;480332;248;1170;-45
2021/06/14 06:08:03;;;;;;;;;;;22.00;50.30;;;;;;480398;248;1135;-45
2021/06/14 06:10:04;;;;;;;;;;;22.00;50.30;;;;;;480652;248;1176;-45
2021/06/14 06:12:06;;;;;;;;;;;22.10;50.30;;;;;;480378;248;1327;-45
2021/06/14 06:14:07;;;;;;;;;;;22.10;50.30;;;;;;480362;248;1138;-45
2021/06/14 06:16:08;;;;;;;;;;;22.10;50.20;;;;;;480380;248;1308;-45
2021/06/14 06:18:10;;;;;;;;;;;22.10;50.30;;;;;;480477;248;1217;-45
2021/06/14 06:20:11;;;;;;;;;;;22.10;50.00;;;;;;480346;248;1291;-45
2021/06/14 06:22:12;;;;;;;;;;;22.10;50.30;;;;;;480344;248;1467;-45
2021/06/14 06:24:14;;;;;;;;;;;21.70;51.00;;;;;;480349;248;2139;-45
2021/06/14 06:26:15;;;;;;;;;;;21.40;52.00;;;;;;480787;248;1332;-45
2021/06/14 06:28:17;;;;;;;;;;;21.10;52.80;;;;;;480417;248;1243;-45
2021/06/14 06:30:18;;;;;;;;;;;20.90;53.20;;;;;;480522;248;1224;-45
2021/06/14 06:32:19;;;;;;;;;;;20.80;53.70;;;;;;480551;244;1392;-45
2021/06/14 06:34:20;;;;;;;;;;;20.70;54.00;;;;;;480547;248;1187;-45
2021/06/14 06:36:22;;;;;;;;;;;20.60;54.30;;;;;;480475;248;1345;-45
2021/06/14 06:38:23;;;;;;;;;;;20.50;54.40;;;;;;480463;248;1121;-45
2021/06/14 06:40:25;;;;;;;;;;;20.40;54.60;;;;;;480523;248;1177;-45
2021/06/14 06:42:26;;;;;;;;;;;20.40;54.70;;;;;;480430;248;1226;-45
2021/06/14 06:44:27;;;;;;;;;;;20.30;54.80;;;;;;480544;248;2150;-45
2021/06/14 06:46:28;;;;;;;;;;;20.30;54.90;;;;;;480492;248;1283;-45
2021/06/14 06:48:30;;;;;;;;;;;20.30;55.00;;;;;;480493;248;1174;-45
2021/06/14 06:50:31;;;;;;;;;;;20.30;55.10;;;;;;480355;248;1139;-45
2021/06/14 06:52:33;;;;;;;;;;;20.20;55.20;;;;;;480772;243;1539;-44
2021/06/14 06:54:34;;;;;;;;;;;20.20;55.20;;;;;;480124;248;1328;-45
2021/06/14 06:56:35;;;;;;;;;;;20.20;55.20;;;;;;480208;248;1252;-45
2021/06/14 06:58:36;;;;;;;;;;;20.20;55.30;;;;;;480254;248;1078;-45
2021/06/14 07:00:40;;;;;;;;;;;20.20;55.30;;;;;;480150;248;1359;-45
2021/06/14 07:02:39;;;;;;;;;;;20.20;55.40;;;;;;479943;247;2179;-45
2021/06/14 07:04:41;;;;;;;;;;;20.10;55.40;;;;;;480065;248;2198;-45
2021/06/14 07:06:42;;;;;;;;;;;20.10;55.40;;;;;;479933;248;2766;-45
2021/06/14 07:08:45;;;;;;;;;;;20.10;55.40;;;;;;479892;248;1274;-45
2021/06/14 07:10:45;;;;;;;;;;;20.10;55.50;;;;;;479720;247;2016;-45
2021/06/14 07:12:46;;;;;;;;;;;20.10;55.60;;;;;;479976;248;1217;-45
2021/06/14 07:14:47;;;;;;;;;;;20.10;55.50;;;;;;479966;248;1372;-45
2021/06/14 07:16:49;;;;;;;;;;;20.10;55.60;;;;;;480063;248;1175;-45
2021/06/14 07:18:50;;;;;;;;;;;20.10;55.60;;;;;;480163;248;1181;-45
2021/06/14 07:20:52;;;;;;;;;;;20.00;55.60;;;;;;480173;248;1357;-45
2021/06/14 07:22:53;;;;;;;;;;;20.00;55.60;;;;;;480505;248;1270;-45
2021/06/14 07:24:54;;;;;;;;;;;20.00;55.70;;;;;;480248;248;2208;-45
2021/06/14 07:26:55;;;;;;;;;;;20.00;55.70;;;;;;480289;248;1170;-45
2021/06/14 07:28:57;;;;;;;;;;;20.00;55.80;;;;;;480938;248;904;-45
2021/06/14 07:30:58;;;;;;;;;;;20.00;55.80;;;;;;480552;248;1565;-45
2021/06/14 07:33:00;;;;;;;;;;;20.00;55.80;;;;;;479979;248;1296;-45
2021/06/14 07:35:01;;;;;;;;;;;20.00;55.80;;;;;;480008;248;1183;-45
2021/06/14 07:37:02;;;;;;;;;;;20.00;55.90;;;;;;480061;248;1311;-45
2021/06/14 07:39:04;;;;;;;;;;;19.90;55.80;;;;;;480059;248;1202;-45
2021/06/14 07:41:05;;;;;;;;;;;19.90;55.90;;;;;;479975;244;1335;-45
2021/06/14 07:43:11;;;;;;;;;;;19.90;55.90;;;;;;480281;248;1227;-45
2021/06/14 07:45:08;;;;;;;;;;;19.90;55.90;;;;;;479867;247;2189;-45
2021/06/14 07:47:09;;;;;;;;;;;19.90;55.90;;;;;;480024;248;1119;-44
2021/06/14 07:49:10;;;;;;;;;;;19.90;55.90;;;;;;480080;248;1192;-45
2021/06/14 07:51:12;;;;;;;;;;;19.90;55.80;;;;;;479937;248;1153;-45
2021/06/14 07:53:13;;;;;;;;;;;19.90;56.00;;;;;;479742;248;1390;-45
2021/06/14 07:55:14;;;;;;;;;;;19.90;56.00;;;;;;479924;248;1083;-45
2021/06/14 07:57:16;;;;;;;;;;;19.80;55.90;;;;;;480058;248;1155;-45
2021/06/14 07:59:17;;;;;;;;;;;19.80;56.00;;;;;;480046;248;1138;-44
2021/06/14 08:01:18;;;;;;;;;;;19.90;56.10;;;;;;479933;248;1395;-45
2021/06/14 08:03:22;;;;;;;;;;;19.80;56.00;;;;;;480473;248;1142;-45
2021/06/14 08:05:21;;;;;;;;;;;19.80;56.10;;;;;;479964;247;2205;-45
2021/06/14 08:07:23;;;;;;;;;;;19.80;56.20;;;;;;480345;248;1090;-45
2021/06/14 08:09:28;;;;;;;;;;;19.80;56.10;;;;;;479936;248;1099;-45
2021/06/14 08:11:29;;;;;;;;;;;19.80;56.20;;;;;;479843;247;1627;-45
2021/06/14 08:13:29;;;;;;;;;;;19.80;56.20;;;;;;480761;248;1233;-45
2021/06/14 08:15:30;;;;;;;;;;;19.80;56.10;;;;;;480643;248;1131;-45
2021/06/14 08:17:32;;;;;;;;;;;19.80;56.10;;;;;;479995;248;1699;-45
2021/06/14 08:19:38;;;;;;;;;;;19.80;56.10;;;;;;479629;248;1107;-45
2021/06/14 08:22:02;;;;;;;;;;;19.80;56.00;;;;;;480145;247;1285;-45
2021/06/14 08:26:09;;;;;;;;;;;19.90;56.00;;;;;;480763;247;2201;-45
2021/06/14 08:28:11;;;;;;;;;;;19.80;55.90;;;;;;480781;248;1082;-45
2021/06/14 08:30:12;;;;;;;;;;;19.80;55.90;;;;;;480298;248;1177;-45
2021/06/14 08:32:13;;;;;;;;;;;19.80;55.90;;;;;;479962;248;1274;-45
2021/06/14 08:34:15;;;;;;;;;;;19.80;56.00;;;;;;480013;248;1294;-45
2021/06/14 08:36:16;;;;;;;;;;;19.80;56.00;;;;;;480265;248;1357;-45
2021/06/14 08:38:17;;;;;;;;;;;19.80;56.00;;;;;;479902;248;1220;-45
2021/06/14 08:40:19;;;;;;;;;;;19.80;56.00;;;;;;479389;248;1165;-45
2021/06/14 08:42:20;;;;;;;;;;;19.80;56.10;;;;;;480145;248;1441;-45
2021/06/14 08:44:21;;;;;;;;;;;19.70;56.10;;;;;;480634;248;1233;-45
2021/06/14 08:46:23;;;;;;;;;;;19.70;56.10;;;;;;480350;244;2197;-45
2021/06/14 08:48:24;;;;;;;;;;;19.80;56.10;;;;;;479988;248;1107;-45
2021/06/14 08:50:25;;;;;;;;;;;19.70;56.10;;;;;;479951;248;1195;-45
2021/06/14 08:52:26;;;;;;;;;;;19.70;56.20;;;;;;479768;248;1229;-45
2021/06/14 08:54:28;;;;;;;;;;;19.70;56.10;;;;;;480539;248;1254;-44
2021/06/14 08:56:29;;;;;;;;;;;19.80;56.10;;;;;;480216;248;1134;-45
2021/06/14 08:58:32;;;;;;;;;;;19.70;56.00;;;;;;480726;248;926;-45
2021/06/14 09:00:33;;;;;;;;;;;19.70;56.10;;;;;;480063;248;1142;-45
2021/06/14 09:02:35;;;;;;;;;;;19.70;56.00;;;;;;480337;248;1092;-45
2021/06/14 09:04:36;;;;;;;;;;;19.70;56.10;;;;;;480529;248;2205;-45
2021/06/14 09:06:37;;;;;;;;;;;19.70;56.20;;;;;;480291;248;1163;-45
2021/06/14 09:08:39;;;;;;;;;;;19.70;56.20;;;;;;480370;248;954;-45
2021/06/14 09:10:41;;;;;;;;;;;19.70;56.10;;;;;;480422;248;1149;-45
2021/06/14 09:12:41;;;;;;;;;;;19.70;56.10;;;;;;480687;248;1687;-45
2021/06/14 09:14:43;;;;;;;;;;;19.70;56.20;;;;;;480231;248;1214;-45
2021/06/14 09:16:44;;;;;;;;;;;19.70;56.10;;;;;;480544;248;1741;-45
2021/06/14 09:18:45;;;;;;;;;;;19.80;56.10;;;;;;480857;248;843;-45
2021/06/14 09:20:46;;;;;;;;;;;19.70;56.10;;;;;;480509;248;1328;-45
2021/06/14 09:22:48;;;;;;;;;;;19.70;56.20;;;;;;480282;248;1385;-45
2021/06/14 09:24:49;;;;;;;;;;;19.70;56.10;;;;;;480364;248;2194;-45
2021/06/14 09:26:50;;;;;;;;;;;19.70;56.10;;;;;;480356;248;1210;-45
2021/06/14 09:28:52;;;;;;;;;;;19.70;56.20;;;;;;479986;248;1147;-45
2021/06/14 09:30:53;;;;;;;;;;;19.70;56.10;;;;;;479877;248;1195;-45
2021/06/14 09:32:55;;;;;;;;;;;19.70;56.20;;;;;;480090;248;1673;-45
2021/06/14 09:34:56;;;;;;;;;;;19.70;56.20;;;;;;480726;243;1187;-44
2021/06/14 09:36:57;;;;;;;;;;;19.60;56.20;;;;;;479805;248;1380;-45
2021/06/14 09:38:59;;;;;;;;;;;19.60;56.20;;;;;;479861;248;1099;-45
2021/06/14 09:41:00;;;;;;;;;;;19.60;56.20;;;;;;479811;248;1248;-45
2021/06/14 09:43:01;;;;;;;;;;;19.60;56.30;;;;;;479826;248;1301;-45
2021/06/14 09:45:03;;;;;;;;;;;19.60;56.20;;;;;;479878;248;2186;-45
2021/06/14 09:47:04;;;;;;;;;;;19.60;56.20;;;;;;479883;248;1282;-45
2021/06/14 09:49:05;;;;;;;;;;;19.60;56.20;;;;;;479854;248;1203;-45
2021/06/14 09:51:07;;;;;;;;;;;19.60;56.10;;;;;;479796;248;1351;-45
2021/06/14 09:53:08;;;;;;;;;;;19.60;56.20;;;;;;479636;248;1127;-45
2021/06/14 09:55:09;;;;;;;;;;;19.60;56.20;;;;;;479936;245;1965;-45
2021/06/14 09:57:11;;;;;;;;;;;19.60;56.30;;;;;;479775;248;1265;-45
2021/06/14 09:59:12;;;;;;;;;;;19.70;56.20;;;;;;479321;248;1136;-45
2021/06/14 10:01:13;;;;;;;;;;;19.70;56.20;;;;;;479918;248;1315;-45
2021/06/14 10:03:15;;;;;;;;;;;19.70;56.20;;;;;;479962;248;1225;-45
2021/06/14 10:05:16;;;;;;;;;;;19.70;56.20;;;;;;479953;248;2170;-45
2021/06/14 10:07:17;;;;;;;;;;;19.70;56.20;;;;;;479987;247;1165;-44
2021/06/14 10:09:19;;;;;;;;;;;19.60;56.20;;;;;;479912;248;1241;-45
2021/06/14 10:11:20;;;;;;;;;;;19.60;56.30;;;;;;479756;248;1277;-45
2021/06/14 10:13:22;;;;;;;;;;;19.60;56.30;;;;;;479922;248;1220;-45
2021/06/14 10:15:23;;;;;;;;;;;19.60;56.20;;;;;;479869;248;1227;-45
2021/06/14 10:17:24;;;;;;;;;;;19.60;56.20;;;;;;479926;248;1219;-45
2021/06/14 10:19:26;;;;;;;;;;;19.60;56.30;;;;;;480002;248;1176;-45
2021/06/14 10:21:29;;;;;;;;;;;19.60;56.20;;;;;;479925;248;1199;-45
2021/06/14 10:23:28;;;;;;;;;;;19.60;56.20;;;;;;479876;247;2304;-45
2021/06/14 10:25:30;;;;;;;;;;;19.60;56.20;;;;;;480046;248;2154;-45
2021/06/14 10:27:31;;;;;;;;;;;19.60;56.30;;;;;;480024;248;1189;-45
2021/06/14 10:29:32;;;;;;;;;;;19.60;56.30;;;;;;480338;248;1111;-45
2021/06/14 10:31:34;;;;;;;;;;;19.60;56.20;;;;;;480726;241;1409;-45
2021/06/14 10:33:35;;;;;;;;;;;19.60;56.20;;;;;;480850;248;1209;-45
2021/06/14 10:35:36;;;;;;;;;;;19.60;56.20;;;;;;480434;248;1578;-45
2021/06/14 10:37:37;;;;;;;;;;;19.60;56.20;;;;;;480187;248;1097;-45
2021/06/14 10:39:41;;;;;;;;;;;19.60;56.30;;;;;;480361;248;1081;-45
2021/06/14 10:41:42;;;;;;;;;;;19.60;56.20;;;;;;479808;248;1996;-45
2021/06/14 10:43:42;;;;;;;;;;;19.60;56.20;;;;;;479661;247;2269;-45
2021/06/14 10:45:43;;;;;;;;;;;19.60;56.20;;;;;;479805;248;2193;-45
2021/06/14 10:47:44;;;;;;;;;;;19.60;56.20;;;;;;479596;248;1162;-45
2021/06/14 10:49:49;;;;;;;;;;;19.60;56.30;;;;;;479689;248;1041;-45
2021/06/14 10:51:47;;;;;;;;;;;19.60;56.20;;;;;;479570;247;1827;-45
2021/06/14 10:53:51;;;;;;;;;;;19.60;56.20;;;;;;480321;248;813;-45
2021/06/14 10:55:52;;;;;;;;;;;19.60;56.20;;;;;;480437;248;1613;-45
2021/06/14 10:57:53;;;;;;;;;;;19.60;56.20;;;;;;480387;248;1010;-45
2021/06/14 10:59:55;;;;;;;;;;;19.60;56.30;;;;;;479666;248;1045;-45
2021/06/14 11:01:56;;;;;;;;;;;19.60;56.30;;;;;;479998;248;1114;-45
2021/06/14 11:03:57;;;;;;;;;;;19.60;56.20;;;;;;480504;248;734;-45
2021/06/14 11:05:59;;;;;;;;;;;19.60;56.20;;;;;;480328;248;2189;-45
2021/06/14 11:08:00;;;;;;;;;;;19.60;56.30;;;;;;480145;248;1100;-45
2021/06/14 11:10:01;;;;;;;;;;;19.60;56.20;;;;;;479744;248;1072;-45
2021/06/14 11:12:03;;;;;;;;;;;19.60;56.20;;;;;;480334;248;1298;-45
2021/06/14 11:14:04;;;;;;;;;;;19.60;56.20;;;;;;480053;248;841;-45
2021/06/14 11:16:06;;;;;;;;;;;19.60;56.30;;;;;;480511;244;1478;-45
2021/06/14 11:18:07;;;;;;;;;;;19.50;56.20;;;;;;479968;248;2011;-45
2021/06/14 11:20:08;;;;;;;;;;;19.60;56.30;;;;;;480036;248;1110;-45
2021/06/14 11:22:09;;;;;;;;;;;19.50;56.30;;;;;;480271;248;1113;-45
2021/06/14 11:24:11;;;;;;;;;;;19.50;56.30;;;;;;480567;248;792;-45
2021/06/14 11:26:12;;;;;;;;;;;19.50;56.30;;;;;;480455;248;2200;-45
2021/06/14 11:28:13;;;;;;;;;;;19.50;56.30;;;;;;480026;248;1000;-45
2021/06/14 11:30:14;;;;;;;;;;;19.60;56.30;;;;;;480313;248;1035;-45
2021/06/14 11:32:19;;;;;;;;;;;19.50;56.20;;;;;;480431;248;797;-45
2021/06/14 11:34:20;;;;;;;;;;;19.60;56.30;;;;;;480065;248;2164;-45
2021/06/14 11:36:21;;;;;;;;;;;19.60;56.20;;;;;;480392;248;1186;-45
2021/06/14 11:38:23;;;;;;;;;;;19.60;56.20;;;;;;480176;248;1489;-45
2021/06/14 11:40:24;;;;;;;;;;;19.60;56.20;;;;;;480557;248;1011;-45
2021/06/14 11:42:25;;;;;;;;;;;19.60;56.20;;;;;;480103;248;844;-45
2021/06/14 11:44:28;;;;;;;;;;;19.60;56.20;;;;;;480244;248;1111;-45
2021/06/14 11:46:29;;;;;;;;;;;19.60;56.20;;;;;;480050;248;2181;-45
2021/06/14 11:48:30;;;;;;;;;;;19.50;56.20;;;;;;480097;248;1178;-45
2021/06/14 11:50:32;;;;;;;;;;;19.60;56.20;;;;;;480149;248;1300;-45
2021/06/14 11:52:35;;;;;;;;;;;19.60;56.20;;;;;;480208;247;1068;-45
2021/06/14 11:54:34;;;;;;;;;;;19.50;56.20;;;;;;480250;247;1934;-45
2021/06/14 11:56:37;;;;;;;;;;;19.50;56.30;;;;;;480232;248;1567;-44
2021/06/14 11:58:40;;;;;;;;;;;19.50;56.20;;;;;;480391;248;2119;-45
2021/06/14 12:00:39;;;;;;;;;;;19.50;56.30;;;;;;480262;247;2175;-45